sensor_id;sensor_type;location;lat;lon;timestamp;pressure;altitude;pressure_sealevel;temperature;humidity
26807;BME280;14380;49.910;6.792;2023-02-04T00:00:01;100224.88;;;8.80;100.00
26807;BME280;14380;49.910;6.792;2023-02-04T00:02:27;100224.41;;;8.98;100.00
26807;BME280;14380;49.910;6.792;2023-02-04T00:04:54;100225.44;;;8.92;100.00
26807;BME280;14380;49.910;6.792;2023-02-04T00:07:20;100226.03;;;9.04;100.00
26807;BME280;14380;49.910;6.792;2023-02-04T00:09:47;100222.41;;;9.08;100.00
26807;BME280;14380;49.910;6.792;2023-02-04T00:12:43;100231.88;;;9.15;100.00
26807;BME280;14380;49.910;6.792;2023-02-04T00:15:10;100229.91;;;8.89;100.00
26807;BME280;14380;49.910;6.792;2023-02-04T00:17:36;100230.66;;;8.94;100.00
26807;BME280;14380;49.910;6.792;2023-02-04T00:20:04;100235.41;;;9.14;100.00
26807;BME280;14380;49.910;6.792;2023-02-04T00:22:30;100229.25;;;9.15;100.00
26807;BME280;14380;49.910;6.792;2023-02-04T00:24:57;100231.88;;;9.15;100.00
26807;BME280;14380;49.910;6.792;2023-02-04T00:27:23;100239.03;;;9.10;100.00
26807;BME280;14380;49.910;6.792;2023-02-04T00:29:51;100238.84;;;9.18;100.00
26807;BME280;14380;49.910;6.792;2023-02-04T00:32:18;100234.59;;;9.12;100.00
26807;BME280;14380;49.910;6.792;2023-02-04T00:38:06;100229.97;;;8.86;100.00
26807;BME280;14380;49.910;6.792;2023-02-04T00:40:32;100230.72;;;9.27;100.00
26807;BME280;14380;49.910;6.792;2023-02-04T00:42:59;100229.75;;;9.30;100.00
26807;BME280;14380;49.910;6.792;2023-02-04T00:45:27;100237.31;;;9.09;100.00
26807;BME280;14380;49.910;6.792;2023-02-04T00:47:53;100242.88;;;9.33;100.00
26807;BME280;14380;49.910;6.792;2023-02-04T00:50:21;100232.63;;;9.20;100.00
26807;BME280;14380;49.910;6.792;2023-02-04T00:52:47;100238.44;;;9.33;100.00
26807;BME280;14380;49.910;6.792;2023-02-04T00:55:14;100236.31;;;9.15;100.00
26807;BME280;14380;49.910;6.792;2023-02-04T00:57:42;100234.44;;;9.18;100.00
26807;BME280;14380;49.910;6.792;2023-02-04T01:00:13;100238.63;;;9.27;100.00
26807;BME280;14380;49.910;6.792;2023-02-04T01:02:42;100241.81;;;9.40;100.00
26807;BME280;14380;49.910;6.792;2023-02-04T01:05:08;100248.88;;;9.38;100.00
26807;BME280;14380;49.910;6.792;2023-02-04T01:07:35;100248.88;;;9.38;100.00
26807;BME280;14380;49.910;6.792;2023-02-04T01:10:02;100252.28;;;9.43;100.00
26807;BME280;14380;49.910;6.792;2023-02-04T01:12:29;100255.44;;;9.21;100.00
26807;BME280;14380;49.910;6.792;2023-02-04T01:14:55;100262.66;;;9.15;100.00
26807;BME280;14380;49.910;6.792;2023-02-04T01:17:22;100262.50;;;9.21;100.00
26807;BME280;14380;49.910;6.792;2023-02-04T01:19:50;100262.03;;;9.05;100.00
26807;BME280;14380;49.910;6.792;2023-02-04T01:22:17;100274.44;;;9.00;100.00
26807;BME280;14380;49.910;6.792;2023-02-04T01:24:43;100272.47;;;9.08;100.00
26807;BME280;14380;49.910;6.792;2023-02-04T01:27:10;100282.38;;;8.98;100.00
26807;BME280;14380;49.910;6.792;2023-02-04T01:29:36;100295.53;;;8.98;100.00
26807;BME280;14380;49.910;6.792;2023-02-04T01:32:03;100297.84;;;8.74;100.00
26807;BME280;14380;49.910;6.792;2023-02-04T01:34:29;100297.25;;;9.01;100.00
26807;BME280;14380;49.910;6.792;2023-02-04T01:36:58;100294.97;;;8.85;100.00
26807;BME280;14380;49.910;6.792;2023-02-04T01:39:24;100295.16;;;8.77;100.00
26807;BME280;14380;49.910;6.792;2023-02-04T01:41:51;100293.38;;;8.78;100.00
26807;BME280;14380;49.910;6.792;2023-02-04T01:44:17;100295.47;;;9.01;100.00
26807;BME280;14380;49.910;6.792;2023-02-04T01:46:44;100298.75;;;8.73;100.00
26807;BME280;14380;49.910;6.792;2023-02-04T01:49:11;100303.22;;;8.70;100.00
26807;BME280;14380;49.910;6.792;2023-02-04T01:51:38;100306.59;;;8.75;100.00
26807;BME280;14380;49.910;6.792;2023-02-04T01:54:09;100297.88;;;8.73;100.00
26807;BME280;14380;49.910;6.792;2023-02-04T01:56:37;100293.19;;;8.86;100.00
26807;BME280;14380;49.910;6.792;2023-02-04T01:59:09;100293.19;;;8.86;100.00
26807;BME280;14380;49.910;6.792;2023-02-04T02:01:39;100296.19;;;8.70;100.00
26807;BME280;14380;49.910;6.792;2023-02-04T02:04:06;100300.56;;;8.71;100.00
26807;BME280;14380;49.910;6.792;2023-02-04T02:06:33;100305.50;;;8.85;100.00
26807;BME280;14380;49.910;6.792;2023-02-04T02:09:01;100300.69;;;8.65;100.00
26807;BME280;14380;49.910;6.792;2023-02-04T02:11:29;100304.22;;;8.64;100.00
26807;BME280;14380;49.910;6.792;2023-02-04T02:13:57;100307.56;;;8.71;100.00
26807;BME280;14380;49.910;6.792;2023-02-04T02:16:23;100309.88;;;8.44;100.00
26807;BME280;14380;49.910;6.792;2023-02-04T02:18:50;100308.06;;;8.49;100.00
26807;BME280;14380;49.910;6.792;2023-02-04T02:21:20;100315.41;;;8.31;100.00
26807;BME280;14380;49.910;6.792;2023-02-04T02:23:53;100311.97;;;8.28;100.00
26807;BME280;14380;49.910;6.792;2023-02-04T02:26:22;100314.34;;;8.40;100.00
26807;BME280;14380;49.910;6.792;2023-02-04T02:28:50;100320.41;;;8.44;100.00
26807;BME280;14380;49.910;6.792;2023-02-04T02:31:19;100323.06;;;8.42;100.00
26807;BME280;14380;49.910;6.792;2023-02-04T02:33:46;100327.59;;;8.36;100.00
26807;BME280;14380;49.910;6.792;2023-02-04T02:36:13;100333.03;;;8.28;100.00
26807;BME280;14380;49.910;6.792;2023-02-04T02:38:40;100331.59;;;8.11;100.00
26807;BME280;14380;49.910;6.792;2023-02-04T02:41:09;100339.47;;;8.13;100.00
26807;BME280;14380;49.910;6.792;2023-02-04T02:43:36;100335.53;;;8.34;100.00
26807;BME280;14380;49.910;6.792;2023-02-04T02:46:04;100341.03;;;8.22;100.00
26807;BME280;14380;49.910;6.792;2023-02-04T02:48:31;100335.06;;;8.15;100.00
26807;BME280;14380;49.910;6.792;2023-02-04T02:50:58;100332.03;;;8.33;100.00
26807;BME280;14380;49.910;6.792;2023-02-04T02:53:24;100336.69;;;8.19;100.00
26807;BME280;14380;49.910;6.792;2023-02-04T02:55:51;100335.78;;;8.22;100.00
26807;BME280;14380;49.910;6.792;2023-02-04T02:58:22;100338.38;;;8.23;100.00
26807;BME280;14380;49.910;6.792;2023-02-04T03:00:50;100340.50;;;8.04;100.00
26807;BME280;14380;49.910;6.792;2023-02-04T03:03:20;100342.59;;;7.86;100.00
26807;BME280;14380;49.910;6.792;2023-02-04T03:05:49;100346.03;;;7.90;100.00
26807;BME280;14380;49.910;6.792;2023-02-04T03:08:17;100350.59;;;7.79;100.00
26807;BME280;14380;49.910;6.792;2023-02-04T03:10:45;100361.97;;;7.81;100.00
26807;BME280;14380;49.910;6.792;2023-02-04T03:13:13;100355.97;;;7.74;100.00
26807;BME280;14380;49.910;6.792;2023-02-04T03:15:44;100356.81;;;7.76;100.00
26807;BME280;14380;49.910;6.792;2023-02-04T03:18:12;100365.69;;;7.70;100.00
26807;BME280;14380;49.910;6.792;2023-02-04T03:20:40;100367.16;;;7.84;100.00
26807;BME280;14380;49.910;6.792;2023-02-04T03:23:06;100365.59;;;7.73;100.00
26807;BME280;14380;49.910;6.792;2023-02-04T03:25:33;100371.19;;;7.53;100.00
26807;BME280;14380;49.910;6.792;2023-02-04T03:28:00;100380.38;;;7.81;100.00
26807;BME280;14380;49.910;6.792;2023-02-04T03:30:26;100379.47;;;7.82;100.00
26807;BME280;14380;49.910;6.792;2023-02-04T03:32:54;100381.25;;;7.81;100.00
26807;BME280;14380;49.910;6.792;2023-02-04T03:35:21;100375.09;;;7.82;100.00
26807;BME280;14380;49.910;6.792;2023-02-04T03:37:48;100382.00;;;7.89;100.00
26807;BME280;14380;49.910;6.792;2023-02-04T03:40:15;100376.53;;;7.99;100.00
26807;BME280;14380;49.910;6.792;2023-02-04T03:42:41;100388.25;;;7.82;100.00
26807;BME280;14380;49.910;6.792;2023-02-04T03:45:08;100394.66;;;7.67;100.00
26807;BME280;14380;49.910;6.792;2023-02-04T03:47:35;100395.44;;;7.72;100.00
26807;BME280;14380;49.910;6.792;2023-02-04T03:50:04;100393.75;;;7.68;100.00
26807;BME280;14380;49.910;6.792;2023-02-04T03:52:30;100395.78;;;7.51;100.00
26807;BME280;14380;49.910;6.792;2023-02-04T03:54:57;100410.38;;;7.70;100.00
26807;BME280;14380;49.910;6.792;2023-02-04T03:57:23;100408.75;;;7.62;100.00
26807;BME280;14380;49.910;6.792;2023-02-04T03:59:50;100413.09;;;7.64;100.00
26807;BME280;14380;49.910;6.792;2023-02-04T04:02:16;100422.16;;;7.44;100.00
26807;BME280;14380;49.910;6.792;2023-02-04T04:04:43;100426.25;;;7.63;100.00
26807;BME280;14380;49.910;6.792;2023-02-04T04:07:11;100426.81;;;7.25;100.00
26807;BME280;14380;49.910;6.792;2023-02-04T04:09:37;100434.75;;;7.24;100.00
26807;BME280;14380;49.910;6.792;2023-02-04T04:12:04;100431.94;;;7.35;100.00
26807;BME280;14380;49.910;6.792;2023-02-04T04:14:31;100436.34;;;7.31;100.00
26807;BME280;14380;49.910;6.792;2023-02-04T04:16:57;100445.22;;;7.25;100.00
26807;BME280;14380;49.910;6.792;2023-02-04T04:19:24;100444.69;;;7.02;100.00
26807;BME280;14380;49.910;6.792;2023-02-04T04:21:50;100438.66;;;6.92;100.00
26807;BME280;14380;49.910;6.792;2023-02-04T04:24:18;100443.63;;;7.13;100.00
26807;BME280;14380;49.910;6.792;2023-02-04T04:26:44;100439.31;;;7.09;100.00
26807;BME280;14380;49.910;6.792;2023-02-04T04:29:11;100432.00;;;7.30;100.00
26807;BME280;14380;49.910;6.792;2023-02-04T04:31:37;100426.66;;;7.36;100.00
26807;BME280;14380;49.910;6.792;2023-02-04T04:34:04;100433.25;;;7.06;100.00
26807;BME280;14380;49.910;6.792;2023-02-04T04:36:31;100442.63;;;7.24;100.00
26807;BME280;14380;49.910;6.792;2023-02-04T04:38:57;100449.81;;;7.08;100.00
26807;BME280;14380;49.910;6.792;2023-02-04T04:41:25;100444.41;;;7.20;100.00
26807;BME280;14380;49.910;6.792;2023-02-04T04:43:51;100447.25;;;7.03;100.00
26807;BME280;14380;49.910;6.792;2023-02-04T04:46:18;100460.28;;;7.11;100.00
26807;BME280;14380;49.910;6.792;2023-02-04T04:48:45;100454.28;;;7.03;100.00
26807;BME280;14380;49.910;6.792;2023-02-04T04:51:11;100458.78;;;6.93;100.00
26807;BME280;14380;49.910;6.792;2023-02-04T04:53:38;100457.03;;;6.93;100.00
26807;BME280;14380;49.910;6.792;2023-02-04T04:56:05;100455.25;;;6.95;100.00
26807;BME280;14380;49.910;6.792;2023-02-04T04:58:33;100458.38;;;7.24;100.00
26807;BME280;14380;49.910;6.792;2023-02-04T05:00:59;100454.34;;;6.98;100.00
26807;BME280;14380;49.910;6.792;2023-02-04T05:03:26;100454.53;;;6.82;100.00
26807;BME280;14380;49.910;6.792;2023-02-04T05:05:52;100454.41;;;6.92;100.00
26807;BME280;14380;49.910;6.792;2023-02-04T05:08:19;100457.84;;;6.98;100.00
26807;BME280;14380;49.910;6.792;2023-02-04T05:10:46;100455.19;;;7.00;100.00
26807;BME280;14380;49.910;6.792;2023-02-04T05:13:12;100455.22;;;6.98;100.00
26807;BME280;14380;49.910;6.792;2023-02-04T05:15:40;100449.16;;;6.93;100.00
26807;BME280;14380;49.910;6.792;2023-02-04T05:18:07;100458.09;;;6.78;100.00
26807;BME280;14380;49.910;6.792;2023-02-04T05:20:34;100460.03;;;6.61;100.00
26807;BME280;14380;49.910;6.792;2023-02-04T05:23:00;100448.69;;;6.60;100.00
26807;BME280;14380;49.910;6.792;2023-02-04T05:25:27;100449.59;;;6.54;100.00
26807;BME280;14380;49.910;6.792;2023-02-04T05:27:54;100456.63;;;6.52;100.00
26807;BME280;14380;49.910;6.792;2023-02-04T05:30:20;100449.53;;;6.62;100.00
26807;BME280;14380;49.910;6.792;2023-02-04T05:32:48;100454.81;;;6.58;100.00
26807;BME280;14380;49.910;6.792;2023-02-04T05:35:15;100458.44;;;6.49;100.00
26807;BME280;14380;49.910;6.792;2023-02-04T05:37:42;100458.38;;;6.53;100.00
26807;BME280;14380;49.910;6.792;2023-02-04T05:40:09;100463.53;;;6.60;100.00
26807;BME280;14380;49.910;6.792;2023-02-04T05:42:35;100471.81;;;6.22;100.00
26807;BME280;14380;49.910;6.792;2023-02-04T05:45:02;100471.63;;;6.39;100.00
26807;BME280;14380;49.910;6.792;2023-02-04T05:47:29;100464.69;;;6.35;100.00
26807;BME280;14380;49.910;6.792;2023-02-04T05:49:56;100467.34;;;6.31;100.00
26807;BME280;14380;49.910;6.792;2023-02-04T05:52:23;100468.28;;;6.27;100.00
26807;BME280;14380;49.910;6.792;2023-02-04T05:54:50;100467.44;;;6.21;100.00
26807;BME280;14380;49.910;6.792;2023-02-04T05:57:16;100462.31;;;6.09;100.00
26807;BME280;14380;49.910;6.792;2023-02-04T05:59:43;100464.09;;;6.05;100.00
26807;BME280;14380;49.910;6.792;2023-02-04T06:02:09;100467.69;;;5.89;100.00
26807;BME280;14380;49.910;6.792;2023-02-04T06:04:36;100466.75;;;5.96;100.00
26807;BME280;14380;49.910;6.792;2023-02-04T06:07:04;100464.94;;;6.10;100.00
26807;BME280;14380;49.910;6.792;2023-02-04T06:09:30;100471.06;;;6.09;100.00
26807;BME280;14380;49.910;6.792;2023-02-04T06:11:57;100477.25;;;5.96;100.00
26807;BME280;14380;49.910;6.792;2023-02-04T06:14:23;100474.66;;;5.94;100.00
26807;BME280;14380;49.910;6.792;2023-02-04T06:16:50;100486.13;;;5.81;100.00
26807;BME280;14380;49.910;6.792;2023-02-04T06:19:16;100482.59;;;5.85;100.00
26807;BME280;14380;49.910;6.792;2023-02-04T06:21:43;100490.44;;;5.84;100.00
26807;BME280;14380;49.910;6.792;2023-02-04T06:24:11;100493.13;;;5.74;100.00
26807;BME280;14380;49.910;6.792;2023-02-04T06:26:37;100495.75;;;5.76;100.00
26807;BME280;14380;49.910;6.792;2023-02-04T06:29:04;100500.09;;;5.83;100.00
26807;BME280;14380;49.910;6.792;2023-02-04T06:31:30;100496.63;;;5.75;100.00
26807;BME280;14380;49.910;6.792;2023-02-04T06:33:57;100504.53;;;5.69;100.00
26807;BME280;14380;49.910;6.792;2023-02-04T06:36:23;100502.81;;;5.66;100.00
26807;BME280;14380;49.910;6.792;2023-02-04T06:38:50;100508.09;;;5.58;100.00
26807;BME280;14380;49.910;6.792;2023-02-04T06:41:18;100502.91;;;5.50;100.00
26807;BME280;14380;49.910;6.792;2023-02-04T06:43:44;100504.72;;;5.44;100.00
26807;BME280;14380;49.910;6.792;2023-02-04T06:46:11;100513.44;;;5.43;100.00
26807;BME280;14380;49.910;6.792;2023-02-04T06:48:37;100510.16;;;5.06;100.00
26807;BME280;14380;49.910;6.792;2023-02-04T06:51:04;100524.09;;;5.01;100.00
26807;BME280;14380;49.910;6.792;2023-02-04T06:53:31;100523.28;;;4.88;100.00
26807;BME280;14380;49.910;6.792;2023-02-04T06:55:57;100525.00;;;4.90;100.00
26807;BME280;14380;49.910;6.792;2023-02-04T06:58:25;100539.00;;;4.85;100.00
26807;BME280;14380;49.910;6.792;2023-02-04T07:00:51;100546.00;;;4.73;100.00
26807;BME280;14380;49.910;6.792;2023-02-04T07:03:18;100548.63;;;4.67;100.00
26807;BME280;14380;49.910;6.792;2023-02-04T07:05:44;100560.81;;;4.78;100.00
26807;BME280;14380;49.910;6.792;2023-02-04T07:08:12;100566.13;;;4.36;100.00
26807;BME280;14380;49.910;6.792;2023-02-04T07:10:39;100573.94;;;4.70;100.00
26807;BME280;14380;49.910;6.792;2023-02-04T07:13:05;100580.94;;;4.38;100.00
26807;BME280;14380;49.910;6.792;2023-02-04T07:15:33;100586.16;;;4.27;100.00
26807;BME280;14380;49.910;6.792;2023-02-04T07:17:59;100583.53;;;4.60;100.00
26807;BME280;14380;49.910;6.792;2023-02-04T07:20:26;100585.28;;;4.53;100.00
26807;BME280;14380;49.910;6.792;2023-02-04T07:22:52;100579.09;;;4.88;100.00
26807;BME280;14380;49.910;6.792;2023-02-04T07:25:24;100594.00;;;4.54;100.00
26807;BME280;14380;49.910;6.792;2023-02-04T07:27:51;100595.72;;;4.50;100.00
26807;BME280;14380;49.910;6.792;2023-02-04T07:30:17;100594.88;;;4.50;100.00
26807;BME280;14380;49.910;6.792;2023-02-04T07:32:45;100587.91;;;4.58;100.00
26807;BME280;14380;49.910;6.792;2023-02-04T07:35:12;100606.22;;;4.28;100.00
26807;BME280;14380;49.910;6.792;2023-02-04T07:37:38;100604.47;;;4.41;100.00
26807;BME280;14380;49.910;6.792;2023-02-04T07:40:06;100608.81;;;4.36;100.00
26807;BME280;14380;49.910;6.792;2023-02-04T07:42:32;100613.19;;;4.62;100.00
26807;BME280;14380;49.910;6.792;2023-02-04T07:44:59;100614.91;;;4.52;100.00
26807;BME280;14380;49.910;6.792;2023-02-04T07:47:25;100614.03;;;4.19;100.00
26807;BME280;14380;49.910;6.792;2023-02-04T07:49:53;100627.13;;;4.38;100.00
26807;BME280;14380;49.910;6.792;2023-02-04T07:52:21;100625.38;;;4.29;100.00
26807;BME280;14380;49.910;6.792;2023-02-04T07:54:48;100617.53;;;4.35;100.00
26807;BME280;14380;49.910;6.792;2023-02-04T07:57:14;100618.41;;;4.54;100.00
26807;BME280;14380;49.910;6.792;2023-02-04T07:59:41;100618.41;;;4.31;100.00
26807;BME280;14380;49.910;6.792;2023-02-04T08:02:08;100621.91;;;4.38;100.00
26807;BME280;14380;49.910;6.792;2023-02-04T08:04:35;100624.50;;;4.25;100.00
26807;BME280;14380;49.910;6.792;2023-02-04T08:07:03;100616.63;;;4.21;100.00
26807;BME280;14380;49.910;6.792;2023-02-04T08:09:30;100623.63;;;4.54;100.00
26807;BME280;14380;49.910;6.792;2023-02-04T08:11:56;100632.38;;;4.38;100.00
26807;BME280;14380;49.910;6.792;2023-02-04T08:14:24;100634.97;;;4.27;100.00
26807;BME280;14380;49.910;6.792;2023-02-04T08:16:50;100642.81;;;4.25;100.00
26807;BME280;14380;49.910;6.792;2023-02-04T08:19:17;100643.69;;;4.34;100.00
26807;BME280;14380;49.910;6.792;2023-02-04T08:21:45;100640.22;;;4.63;100.00
26807;BME280;14380;49.910;6.792;2023-02-04T08:24:14;100644.59;;;4.59;100.00
26807;BME280;14380;49.910;6.792;2023-02-04T08:26:42;100640.22;;;4.58;100.00
26807;BME280;14380;49.910;6.792;2023-02-04T08:29:09;100640.19;;;4.44;100.00
26807;BME280;14380;49.910;6.792;2023-02-04T08:31:36;100644.56;;;4.67;100.00
26807;BME280;14380;49.910;6.792;2023-02-04T08:34:03;100648.06;;;4.78;100.00
26807;BME280;14380;49.910;6.792;2023-02-04T08:36:30;100648.03;;;4.80;100.00
26807;BME280;14380;49.910;6.792;2023-02-04T08:38:57;100651.56;;;4.80;100.00
26807;BME280;14380;49.910;6.792;2023-02-04T08:41:25;100649.81;;;4.70;100.00
26807;BME280;14380;49.910;6.792;2023-02-04T08:43:51;100649.81;;;4.79;100.00
26807;BME280;14380;49.910;6.792;2023-02-04T08:46:18;100652.41;;;4.87;100.00
26807;BME280;14380;49.910;6.792;2023-02-04T08:48:44;100653.25;;;5.00;100.00
26807;BME280;14380;49.910;6.792;2023-02-04T08:51:11;100656.75;;;5.03;100.00
26807;BME280;14380;49.910;6.792;2023-02-04T08:53:37;100650.66;;;4.98;100.00
26807;BME280;14380;49.910;6.792;2023-02-04T08:56:05;100653.25;;;5.09;100.00
26807;BME280;14380;49.910;6.792;2023-02-04T08:58:33;100658.50;;;5.08;100.00
26807;BME280;14380;49.910;6.792;2023-02-04T09:01:00;100653.16;;;5.31;100.00
26807;BME280;14380;49.910;6.792;2023-02-04T09:03:26;100659.19;;;5.61;100.00
26807;BME280;14380;49.910;6.792;2023-02-04T09:05:53;100648.69;;;5.67;100.00
26807;BME280;14380;49.910;6.792;2023-02-04T09:08:20;100659.97;;;5.78;100.00
26807;BME280;14380;49.910;6.792;2023-02-04T09:10:46;100662.56;;;5.89;100.00
26807;BME280;14380;49.910;6.792;2023-02-04T09:13:13;100666.06;;;5.87;100.00
26807;BME280;14380;49.910;6.792;2023-02-04T09:15:41;100667.75;;;6.06;100.00
26807;BME280;14380;49.910;6.792;2023-02-04T09:18:07;100673.69;;;6.36;100.00
26807;BME280;14380;49.910;6.792;2023-02-04T09:20:40;100670.03;;;6.58;100.00
26807;BME280;14380;49.910;6.792;2023-02-04T09:23:07;100670.75;;;6.74;100.00
26807;BME280;14380;49.910;6.792;2023-02-04T09:25:36;100670.59;;;6.91;100.00
26807;BME280;14380;49.910;6.792;2023-02-04T09:28:03;100671.31;;;7.08;100.00
26807;BME280;14380;49.910;6.792;2023-02-04T09:30:30;100681.56;;;7.35;100.00
26807;BME280;14380;49.910;6.792;2023-02-04T09:32:57;100679.25;;;7.02;100.00
26807;BME280;14380;49.910;6.792;2023-02-04T09:35:24;100682.41;;;7.38;100.00
26807;BME280;14380;49.910;6.792;2023-02-04T09:37:50;100685.72;;;7.54;100.00
26807;BME280;14380;49.910;6.792;2023-02-04T09:40:17;100687.34;;;7.66;100.00
26807;BME280;14380;49.910;6.792;2023-02-04T09:42:46;100688.13;;;7.73;100.00
26807;BME280;14380;49.910;6.792;2023-02-04T09:45:15;100681.00;;;7.83;100.00
26807;BME280;14380;49.910;6.792;2023-02-04T09:47:43;100682.28;;;7.49;100.00
26807;BME280;14380;49.910;6.792;2023-02-04T09:50:13;100687.41;;;7.58;100.00
26807;BME280;14380;49.910;6.792;2023-02-04T09:52:41;100685.47;;;7.74;100.00
26807;BME280;14380;49.910;6.792;2023-02-04T09:55:12;100693.78;;;7.37;100.00
26807;BME280;14380;49.910;6.792;2023-02-04T09:57:52;100703.84;;;7.78;100.00
26807;BME280;14380;49.910;6.792;2023-02-04T10:00:43;100707.19;;;7.92;100.00
26807;BME280;14380;49.910;6.792;2023-02-04T10:03:14;100711.28;;;8.13;100.00
26807;BME280;14380;49.910;6.792;2023-02-04T10:05:43;100707.53;;;8.31;100.00
26807;BME280;14380;49.910;6.792;2023-02-04T10:08:13;100719.56;;;8.50;100.00
26807;BME280;14380;49.910;6.792;2023-02-04T10:10:40;100722.16;;;8.53;100.00
26807;BME280;14380;49.910;6.792;2023-02-04T10:13:12;100716.94;;;8.50;100.00
26807;BME280;14380;49.910;6.792;2023-02-04T10:15:40;100711.31;;;8.73;100.00
26807;BME280;14380;49.910;6.792;2023-02-04T10:18:07;100710.69;;;8.58;100.00
26807;BME280;14380;49.910;6.792;2023-02-04T10:20:33;100723.41;;;8.27;100.00
26807;BME280;14380;49.910;6.792;2023-02-04T10:23:01;100716.72;;;8.65;100.00
26807;BME280;14380;49.910;6.792;2023-02-04T10:25:28;100723.13;;;8.45;100.00
26807;BME280;14380;49.910;6.792;2023-02-04T10:27:56;100712.56;;;8.50;100.00
26807;BME280;14380;49.910;6.792;2023-02-04T10:30:24;100717.03;;;8.40;100.00
26807;BME280;14380;49.910;6.792;2023-02-04T10:32:51;100720.19;;;8.04;100.00
26807;BME280;14380;49.910;6.792;2023-02-04T10:35:20;100713.59;;;8.37;100.00
26807;BME280;14380;49.910;6.792;2023-02-04T10:37:47;100723.06;;;8.53;100.00
26807;BME280;14380;49.910;6.792;2023-02-04T10:40:29;100718.00;;;8.96;100.00
26807;BME280;14380;49.910;6.792;2023-02-04T10:42:56;100721.56;;;8.90;100.00
26807;BME280;14380;49.910;6.792;2023-02-04T10:45:25;100718.72;;;8.46;100.00
26807;BME280;14380;49.910;6.792;2023-02-04T10:47:53;100723.69;;;8.68;100.00
26807;BME280;14380;49.910;6.792;2023-02-04T10:50:22;100719.53;;;8.53;100.00
26807;BME280;14380;49.910;6.792;2023-02-04T10:52:51;100723.78;;;8.61;100.00
26807;BME280;14380;49.910;6.792;2023-02-04T10:55:22;100718.59;;;9.12;100.00
26807;BME280;14380;49.910;6.792;2023-02-04T10:57:51;100722.66;;;8.78;100.00
26807;BME280;14380;49.910;6.792;2023-02-04T11:00:19;100721.06;;;8.68;100.00
26807;BME280;14380;49.910;6.792;2023-02-04T11:02:54;100713.22;;;9.16;100.00
26807;BME280;14380;49.910;6.792;2023-02-04T11:05:24;100713.22;;;9.18;100.00
26807;BME280;14380;49.910;6.792;2023-02-04T11:07:54;100715.13;;;9.08;99.87
26807;BME280;14380;49.910;6.792;2023-02-04T11:10:23;100715.34;;;9.46;100.00
26807;BME280;14380;49.910;6.792;2023-02-04T11:13:20;100721.94;;;9.21;99.96
26807;BME280;14380;49.910;6.792;2023-02-04T11:15:48;100727.81;;;9.36;100.00
26807;BME280;14380;49.910;6.792;2023-02-04T11:18:26;100721.22;;;9.59;100.00
26807;BME280;14380;49.910;6.792;2023-02-04T11:20:56;100722.22;;;9.53;100.00
26807;BME280;14380;49.910;6.792;2023-02-04T11:23:34;100727.47;;;9.55;98.91
26807;BME280;14380;49.910;6.792;2023-02-04T11:26:07;100720.09;;;9.72;98.54
26807;BME280;14380;49.910;6.792;2023-02-04T11:28:54;100718.53;;;10.06;99.17
26807;BME280;14380;49.910;6.792;2023-02-04T11:31:38;100713.56;;;9.92;98.42
26807;BME280;14380;49.910;6.792;2023-02-04T11:34:10;100709.59;;;9.71;100.00
26807;BME280;14380;49.910;6.792;2023-02-04T11:37:10;100708.13;;;9.98;100.00
26807;BME280;14380;49.910;6.792;2023-02-04T11:39:39;100707.59;;;9.82;96.83
26807;BME280;14380;49.910;6.792;2023-02-04T11:42:17;100706.72;;;9.81;96.04
26807;BME280;14380;49.910;6.792;2023-02-04T11:44:50;100698.44;;;9.56;97.07
26807;BME280;14380;49.910;6.792;2023-02-04T11:47:18;100704.03;;;9.85;98.31
26807;BME280;14380;49.910;6.792;2023-02-04T11:49:51;100698.56;;;9.50;97.72
26807;BME280;14380;49.910;6.792;2023-02-04T11:52:19;100700.84;;;9.69;95.73
26807;BME280;14380;49.910;6.792;2023-02-04T11:54:52;100709.06;;;9.51;96.13
26807;BME280;14380;49.910;6.792;2023-02-04T11:57:19;100704.44;;;9.64;94.61
26807;BME280;14380;49.910;6.792;2023-02-04T11:59:45;100698.81;;;9.36;95.94
26807;BME280;14380;49.910;6.792;2023-02-04T12:02:16;100706.16;;;9.18;96.22
26807;BME280;14380;49.910;6.792;2023-02-04T12:04:53;100705.47;;;9.07;97.47
26807;BME280;14380;49.910;6.792;2023-02-04T12:07:23;100708.69;;;9.26;97.46
26807;BME280;14380;49.910;6.792;2023-02-04T12:09:50;100705.84;;;9.35;97.00
26807;BME280;14380;49.910;6.792;2023-02-04T12:12:23;100703.47;;;9.69;98.93
26807;BME280;14380;49.910;6.792;2023-02-04T12:14:56;100700.97;;;9.62;96.60
26807;BME280;14380;49.910;6.792;2023-02-04T12:17:24;100705.66;;;9.92;97.21
26807;BME280;14380;49.910;6.792;2023-02-04T12:19:51;100704.31;;;9.71;95.98
26807;BME280;14380;49.910;6.792;2023-02-04T12:22:17;100714.38;;;9.50;93.56
26807;BME280;14380;49.910;6.792;2023-02-04T12:24:44;100711.94;;;9.85;96.18
26807;BME280;14380;49.910;6.792;2023-02-04T12:27:10;100707.63;;;9.80;95.36
26807;BME280;14380;49.910;6.792;2023-02-04T12:29:37;100708.22;;;9.51;94.17
26807;BME280;14380;49.910;6.792;2023-02-04T12:32:03;100709.16;;;9.47;96.22
26807;BME280;14380;49.910;6.792;2023-02-04T12:34:31;100714.00;;;9.23;97.86
26807;BME280;14380;49.910;6.792;2023-02-04T12:36:58;100705.09;;;9.29;96.78
26807;BME280;14380;49.910;6.792;2023-02-04T12:39:24;100705.41;;;9.60;96.22
26807;BME280;14380;49.910;6.792;2023-02-04T12:41:52;100707.66;;;9.33;95.83
26807;BME280;14380;49.910;6.792;2023-02-04T12:44:19;100715.13;;;9.08;94.20
26807;BME280;14380;49.910;6.792;2023-02-04T12:46:45;100704.09;;;9.81;97.31
26807;BME280;14380;49.910;6.792;2023-02-04T12:49:12;100704.44;;;9.63;93.25
26807;BME280;14380;49.910;6.792;2023-02-04T12:51:40;100706.16;;;9.20;94.29
26807;BME280;14380;49.910;6.792;2023-02-04T12:54:06;100712.59;;;9.52;92.42
26807;BME280;14380;49.910;6.792;2023-02-04T12:56:33;100695.88;;;9.53;90.79